Time;durP1;ratioP1;P1;durP2;ratioP2;P2;SDS_P1;SDS_P2;PMS_P1;PMS_P2;Temp;Humidity;BMP_temperature;BMP_pressure;BME280_temperature;BME280_humidity;BME280_pressure;Samples;Min_cycle;Max_cycle;Signal;HPM_P1;HPM_P2
2023/04/24 00:01:26;;;;;;;;;4.00;4.00;;;;;10.65;64.61;100226.09;5097443;27;45515;-76
2023/04/24 00:03:52;;;;;;;;;5.00;5.00;;;;;10.93;64.54;100265.78;5097941;27;45510;-74
2023/04/24 00:06:17;;;;;;;;;5.00;4.67;;;;;10.72;64.51;100238.72;5097957;27;45445;-76
2023/04/24 00:08:42;;;;;;;;;5.67;5.33;;;;;10.68;64.30;100246.19;5078771;27;47365;-73
2023/04/24 00:11:09;;;;;;;;;5.33;4.67;;;;;10.87;64.49;100282.38;5096879;27;45174;-74
2023/04/24 00:13:34;;;;;;;;;5.00;4.00;;;;;10.50;65.35;100238.28;5087464;27;45274;-75
2023/04/24 00:16:00;;;;;;;;;5.00;5.00;;;;;10.75;65.34;100288.94;5112568;27;45511;-72
2023/04/24 00:18:25;;;;;;;;;3.67;3.67;;;;;10.66;65.22;100288.88;5101333;27;45495;-74
2023/04/24 00:20:50;;;;;;;;;4.00;4.00;;;;;10.57;64.94;100275.69;5100828;27;48074;-75
2023/04/24 00:23:15;;;;;;;;;5.33;5.33;;;;;10.76;65.23;100301.25;5100545;27;56196;-73
2023/04/24 00:25:41;;;;;;;;;3.33;3.33;;;;;10.15;64.84;100195.78;5101176;27;45462;-72
2023/04/24 00:28:06;;;;;;;;;4.00;3.33;;;;;9.98;65.01;100185.03;5100495;27;45183;-73
2023/04/24 00:30:31;;;;;;;;;5.33;4.33;;;;;10.39;65.40;100249.13;5100498;27;45479;-75
2023/04/24 00:32:57;;;;;;;;;5.00;5.00;;;;;9.90;64.77;100166.41;5082259;27;45470;-75
2023/04/24 00:35:23;;;;;;;;;7.00;4.67;;;;;10.69;64.92;100310.84;5102594;27;45477;-74
2023/04/24 00:37:49;;;;;;;;;4.00;4.00;;;;;10.77;65.22;100321.50;5120883;27;46786;-74
2023/04/24 00:40:15;;;;;;;;;4.00;4.00;;;;;10.60;65.19;100296.63;5110912;27;45366;-76
2023/04/24 00:42:40;;;;;;;;;4.33;4.33;;;;;10.79;65.10;100328.34;5100678;27;45323;-74
2023/04/24 00:45:06;;;;;;;;;3.00;3.00;;;;;10.71;65.58;100314.16;5100868;27;45414;-74
2023/04/24 00:47:33;;;;;;;;;5.33;4.00;;;;;10.75;64.82;100331.47;5112338;27;47252;-75
2023/04/24 00:50:01;;;;;;;;;4.67;4.67;;;;;10.76;65.06;100333.97;5116508;27;45875;-75
2023/04/24 00:52:28;;;;;;;;;4.33;4.33;;;;;10.13;65.21;100234.97;5120508;27;45403;-74
2023/04/24 00:54:53;;;;;;;;;3.00;3.00;;;;;10.63;65.26;100322.94;5111755;27;45675;-75
2023/04/24 00:57:19;;;;;;;;;6.67;4.00;;;;;10.62;65.08;100326.59;5110356;27;45570;-74
2023/04/24 00:59:45;;;;;;;;;5.00;3.00;;;;;10.65;65.30;100348.38;5100182;27;45842;-73
2023/04/24 01:02:11;;;;;;;;;3.33;3.33;;;;;9.15;65.49;100101.34;5100067;27;45473;-75
2023/04/24 01:04:37;;;;;;;;;3.00;3.00;;;;;10.62;65.17;100351.34;5108560;27;45542;-74
2023/04/24 01:07:03;;;;;;;;;3.00;3.00;;;;;10.58;65.81;100339.31;5100119;27;45839;-73
2023/04/24 01:09:29;;;;;;;;;5.67;3.00;;;;;10.49;65.48;100326.97;5099660;27;45618;-74
2023/04/24 01:11:54;;;;;;;;;3.33;3.00;;;;;10.60;65.33;100342.66;5095533;27;45506;-75
2023/04/24 01:14:20;;;;;;;;;5.00;4.00;;;;;10.51;65.58;100325.00;5110442;27;45461;-74
2023/04/24 01:16:45;;;;;;;;;5.00;3.67;;;;;10.42;65.46;100291.38;5099977;27;45346;-73
2023/04/24 01:19:11;;;;;;;;;3.33;3.33;;;;;9.88;65.39;100202.88;5089873;27;45318;-74
2023/04/24 01:21:38;;;;;;;;;5.00;5.00;;;;;10.61;65.64;100324.88;5118493;27;45201;-72
2023/04/24 01:24:05;;;;;;;;;7.00;4.00;;;;;10.44;65.69;100294.72;5113505;27;45453;-74
2023/04/24 01:26:31;;;;;;;;;4.00;4.00;;;;;10.18;65.18;100236.16;5090895;27;47252;-72
2023/04/24 01:28:56;;;;;;;;;4.00;4.00;;;;;10.04;64.94;100215.47;5107200;27;45493;-74
2023/04/24 01:31:22;;;;;;;;;4.00;4.00;;;;;10.21;65.37;100237.69;5099983;27;45517;-73
2023/04/24 01:33:48;;;;;;;;;3.33;3.33;;;;;10.29;65.27;100251.06;5110909;27;45485;-74
2023/04/24 01:36:14;;;;;;;;;7.00;5.67;;;;;9.85;64.50;100175.81;5104582;27;45708;-74
2023/04/24 01:38:39;;;;;;;;;6.00;4.67;;;;;10.66;65.17;100328.78;5116829;27;45228;-76
2023/04/24 01:41:05;;;;;;;;;4.00;4.00;;;;;9.95;65.04;100201.28;5089501;27;45541;-73
2023/04/24 01:43:31;;;;;;;;;2.67;2.00;;;;;10.66;64.86;100339.41;5100001;27;45486;-76
2023/04/24 01:45:56;;;;;;;;;5.67;5.67;;;;;10.65;64.85;100331.59;5119192;27;46921;-75
2023/04/24 01:48:22;;;;;;;;;5.00;5.00;;;;;10.73;65.05;100357.38;5086384;27;46370;-73
2023/04/24 01:50:47;;;;;;;;;3.00;3.00;;;;;10.33;65.05;100294.94;5095560;27;45473;-73
2023/04/24 01:53:13;;;;;;;;;3.67;3.67;;;;;10.79;65.00;100354.94;5111391;27;45235;-74
2023/04/24 01:55:38;;;;;;;;;3.67;3.33;;;;;10.32;65.21;100293.25;5093316;27;48671;-74
2023/04/24 01:58:04;;;;;;;;;4.00;4.00;;;;;10.73;65.33;100346.75;5081009;27;46083;-74
2023/04/24 02:00:29;;;;;;;;;7.33;3.00;;;;;10.67;64.94;100340.25;5080967;27;45516;-74
2023/04/24 02:02:54;;;;;;;;;5.67;3.00;;;;;10.63;64.82;100339.72;5089334;27;45569;-76
2023/04/24 02:05:20;;;;;;;;;5.00;4.67;;;;;10.64;64.78;100327.25;5101659;27;47550;-76
2023/04/24 02:07:45;;;;;;;;;5.00;4.00;;;;;10.73;64.87;100360.03;5112845;27;45519;-73
2023/04/24 02:10:11;;;;;;;;;3.67;2.67;;;;;10.33;64.82;100284.31;5098464;27;45307;-74
2023/04/24 02:12:37;;;;;;;;;5.00;4.00;;;;;10.53;64.83;100317.69;5085530;27;45419;-73
2023/04/24 02:15:03;;;;;;;;;3.33;3.33;;;;;10.81;64.72;100362.75;5092651;27;47669;-74
2023/04/24 02:17:28;;;;;;;;;3.00;3.00;;;;;10.91;64.41;100364.34;5101710;27;45504;-74
2023/04/24 02:19:54;;;;;;;;;6.67;5.00;;;;;10.77;64.84;100361.41;5119356;27;45493;-75
2023/04/24 02:22:19;;;;;;;;;4.00;3.33;;;;;9.50;64.31;100144.81;5119014;27;45535;-76
2023/04/24 02:24:45;;;;;;;;;5.33;4.00;;;;;10.95;64.54;100380.81;5091592;27;48787;-74
2023/04/24 02:27:11;;;;;;;;;3.00;3.00;;;;;10.98;64.74;100380.50;5100512;27;46451;-73
2023/04/24 02:29:36;;;;;;;;;2.00;2.00;;;;;11.02;64.32;100381.06;5109698;27;45296;-74
2023/04/24 02:32:02;;;;;;;;;2.00;2.00;;;;;11.02;64.27;100379.22;5086667;27;45498;-73
2023/04/24 02:34:27;;;;;;;;;5.33;3.00;;;;;10.69;64.35;100334.75;5097546;27;45754;-73
2023/04/24 02:36:53;;;;;;;;;3.33;3.00;;;;;10.54;64.34;100313.22;5098622;27;45272;-72
2023/04/24 02:39:19;;;;;;;;;4.00;4.00;;;;;10.80;64.37;100353.09;5098682;27;45412;-74
2023/04/24 02:41:45;;;;;;;;;5.33;4.00;;;;;11.01;64.37;100393.50;5100426;27;45511;-74
2023/04/24 02:44:10;;;;;;;;;6.00;3.67;;;;;11.03;64.81;100402.19;5104954;27;46642;-73
2023/04/24 02:46:36;;;;;;;;;5.00;4.00;;;;;11.04;64.34;100385.22;5098662;27;46263;-75
2023/04/24 02:49:01;;;;;;;;;3.00;3.00;;;;;10.46;64.21;100284.75;5097302;27;45541;-74
2023/04/24 02:51:26;;;;;;;;;3.33;3.00;;;;;11.11;64.05;100391.59;5097139;27;45470;-73
2023/04/24 02:53:52;;;;;;;;;2.67;2.67;;;;;11.12;64.16;100403.06;5098021;27;46417;-74
2023/04/24 02:56:17;;;;;;;;;3.33;2.67;;;;;11.12;64.70;100405.72;5098816;27;45442;-73
2023/04/24 02:58:43;;;;;;;;;3.33;3.33;;;;;11.02;64.19;100379.22;5098311;27;45554;-73
2023/04/24 03:01:09;;;;;;;;;4.67;4.67;;;;;10.16;64.32;100243.44;5098461;27;45458;-75
2023/04/24 03:03:35;;;;;;;;;4.00;3.33;;;;;10.64;64.29;100330.75;5098359;27;45646;-75
2023/04/24 03:06:01;;;;;;;;;3.67;3.67;;;;;10.33;64.71;100284.31;5097802;27;45321;-74
2023/04/24 03:08:26;;;;;;;;;3.67;3.00;;;;;10.91;64.21;100390.94;5101707;27;45758;-75
2023/04/24 03:10:52;;;;;;;;;3.00;3.00;;;;;10.89;64.51;100394.75;5095761;27;45300;-74
2023/04/24 03:13:17;;;;;;;;;3.00;3.00;;;;;11.02;64.48;100419.13;5096468;27;48781;-75
2023/04/24 03:15:42;;;;;;;;;3.00;3.00;;;;;10.80;64.63;100374.38;5097888;27;45285;-73
2023/04/24 03:18:08;;;;;;;;;7.33;4.67;;;;;10.63;64.62;100357.50;5098039;27;45314;-74
2023/04/24 03:20:33;;;;;;;;;4.00;3.00;;;;;10.88;65.23;100406.38;5079781;27;45577;-73
2023/04/24 03:22:59;;;;;;;;;4.00;3.00;;;;;10.69;64.98;100377.31;5113042;27;45942;-75
2023/04/24 03:25:24;;;;;;;;;3.00;3.00;;;;;10.79;65.02;100391.31;5107832;27;45756;-73
2023/04/24 03:27:50;;;;;;;;;4.00;3.33;;;;;10.85;65.16;100390.72;5106540;27;45387;-74
2023/04/24 03:30:15;;;;;;;;;3.33;3.33;;;;;10.86;64.71;100393.25;5097875;27;45434;-73
2023/04/24 03:32:40;;;;;;;;;2.00;2.00;;;;;10.41;64.81;100340.19;5097718;27;45569;-77
2023/04/24 03:35:08;;;;;;;;;5.00;4.00;;;;;10.64;65.00;100388.41;5097998;27;45348;-74
2023/04/24 03:37:33;;;;;;;;;2.67;2.67;;;;;10.55;64.88;100358.25;5096462;27;45478;-74
2023/04/24 03:39:59;;;;;;;;;4.00;4.00;;;;;10.22;64.39;100296.03;5097648;27;45189;-74
2023/04/24 03:42:24;;;;;;;;;4.67;4.33;;;;;10.71;64.61;100383.28;5095522;27;47469;-75
2023/04/24 03:44:50;;;;;;;;;4.67;3.00;;;;;10.96;65.12;100430.38;5098027;27;45227;-72
2023/04/24 03:47:15;;;;;;;;;5.00;5.00;;;;;10.69;64.96;100374.66;5102660;27;45336;-73
2023/04/24 03:49:40;;;;;;;;;4.67;3.00;;;;;10.87;64.64;100394.06;5101031;27;45472;-73
2023/04/24 03:52:06;;;;;;;;;4.67;3.67;;;;;10.97;64.84;100437.34;5097771;27;46627;-74
2023/04/24 03:54:31;;;;;;;;;3.67;3.67;;;;;10.99;65.12;100427.41;5094670;27;45718;-73
2023/04/24 03:56:56;;;;;;;;;5.00;4.33;;;;;10.57;65.10;100358.91;5098534;27;45251;-73
2023/04/24 03:59:22;;;;;;;;;4.00;4.00;;;;;10.81;64.62;100400.84;5098015;27;45322;-74
2023/04/24 04:01:47;;;;;;;;;3.33;3.00;;;;;11.03;64.98;100431.44;5096885;27;46773;-73
2023/04/24 04:04:12;;;;;;;;;4.00;4.00;;;;;11.00;64.46;100455.66;5097561;27;45412;-74
2023/04/24 04:06:38;;;;;;;;;2.67;2.67;;;;;10.99;64.48;100456.66;5094451;27;45469;-75
2023/04/24 04:09:03;;;;;;;;;4.33;3.33;;;;;11.04;64.59;100450.91;5106313;27;45596;-74
2023/04/24 04:11:30;;;;;;;;;1.00;1.00;;;;;10.70;65.05;100408.22;5086496;27;48194;-73
2023/04/24 04:13:56;;;;;;;;;4.67;4.67;;;;;11.06;65.11;100451.56;5084691;27;45364;-72
2023/04/24 04:16:22;;;;;;;;;5.33;4.67;;;;;10.76;65.09;100427.03;5097221;27;45315;-73
2023/04/24 04:18:47;;;;;;;;;6.00;4.00;;;;;10.98;65.24;100462.97;5097084;27;45388;-75
2023/04/24 04:21:13;;;;;;;;;5.67;5.00;;;;;10.67;65.33;100409.38;5096806;27;46049;-76
2023/04/24 04:23:39;;;;;;;;;12.33;12.33;;;;;10.99;65.32;100467.28;5097264;27;45595;-74
2023/04/24 04:26:05;;;;;;;;;4.67;4.67;;;;;10.09;64.96;100313.28;5105468;27;45478;-74
2023/04/24 04:28:31;;;;;;;;;4.00;3.00;;;;;10.89;65.38;100440.78;5101709;27;45431;-74
2023/04/24 04:30:57;;;;;;;;;7.00;6.00;;;;;10.47;65.88;100391.91;5116585;27;45532;-76
2023/04/24 04:33:23;;;;;;;;;6.00;6.00;;;;;11.00;65.76;100468.13;5086894;27;46285;-76
2023/04/24 04:35:49;;;;;;;;;5.33;4.33;;;;;10.75;65.15;100430.69;5097041;27;45355;-74
2023/04/24 04:38:16;;;;;;;;;5.00;4.00;;;;;11.00;65.67;100468.97;5078773;27;45545;-73
2023/04/24 04:40:42;;;;;;;;;5.67;3.67;;;;;11.06;65.24;100494.97;5095888;27;45767;-73
2023/04/24 04:43:08;;;;;;;;;5.00;4.67;;;;;10.99;65.14;100469.97;5095991;27;45304;-74
2023/04/24 04:45:34;;;;;;;;;4.33;4.33;;;;;10.69;65.21;100433.13;5108379;27;45771;-75
2023/04/24 04:48:03;;;;;;;;;5.67;3.67;;;;;11.00;65.31;100484.09;5109682;27;45232;-75
2023/04/24 04:50:28;;;;;;;;;5.33;5.33;;;;;11.02;65.28;100493.63;5096103;27;45908;-77
2023/04/24 04:52:54;;;;;;;;;6.00;4.33;;;;;11.10;65.49;100517.63;5096413;27;45521;-74
2023/04/24 04:55:20;;;;;;;;;5.00;4.00;;;;;10.90;65.26;100466.41;5086709;27;45335;-74
2023/04/24 04:57:45;;;;;;;;;6.67;4.67;;;;;11.14;65.15;100508.34;5097303;27;45411;-76
2023/04/24 05:00:12;;;;;;;;;4.00;4.00;;;;;11.14;65.16;100513.66;5101314;27;46243;-75
2023/04/24 05:02:41;;;;;;;;;4.00;3.33;;;;;10.93;65.41;100487.38;5093449;27;46483;-74
2023/04/24 05:05:07;;;;;;;;;8.00;5.67;;;;;11.12;65.22;100512.16;5111844;27;45360;-75
2023/04/24 05:07:32;;;;;;;;;5.00;5.00;;;;;11.00;65.04;100492.91;5119760;27;45239;-73
2023/04/24 05:09:58;;;;;;;;;7.00;7.00;;;;;11.04;65.58;100534.19;5105848;27;45421;-76
2023/04/24 05:12:23;;;;;;;;;4.33;4.33;;;;;10.25;65.96;100403.81;5099000;27;45312;-74
2023/04/24 05:14:48;;;;;;;;;7.00;5.33;;;;;11.04;65.49;100538.69;5100250;27;45382;-74
2023/04/24 05:17:14;;;;;;;;;6.00;6.00;;;;;8.94;65.32;100183.81;5100756;27;45259;-74
2023/04/24 05:19:40;;;;;;;;;7.00;6.00;;;;;10.90;65.80;100508.13;5108187;27;47065;-74
2023/04/24 05:22:06;;;;;;;;;9.00;7.67;;;;;11.11;65.96;100556.53;5100988;27;46460;-74
2023/04/24 05:24:32;;;;;;;;;4.33;4.33;;;;;10.78;65.99;100496.03;5083525;27;45301;-76
2023/04/24 05:26:58;;;;;;;;;6.33;6.00;;;;;11.12;65.41;100552.88;5099537;27;45477;-76
2023/04/24 05:29:25;;;;;;;;;10.00;9.67;;;;;11.16;65.63;100564.06;5099434;27;45182;-75
2023/04/24 05:31:50;;;;;;;;;9.33;8.00;;;;;10.82;65.91;100510.72;5099707;27;45381;-76
2023/04/24 05:34:16;;;;;;;;;6.00;6.00;;;;;10.41;65.45;100435.88;5087710;27;51421;-76
2023/04/24 05:36:42;;;;;;;;;6.67;6.67;;;;;11.21;65.82;100573.28;5101193;27;45612;-74
2023/04/24 05:39:08;;;;;;;;;9.33;9.33;;;;;10.44;65.65;100443.53;5099391;27;46721;-77
2023/04/24 05:41:34;;;;;;;;;7.33;7.33;;;;;10.73;65.65;100495.66;5099999;27;46343;-75
2023/04/24 05:43:59;;;;;;;;;8.67;8.67;;;;;11.15;65.67;100552.56;5103328;27;45500;-75
2023/04/24 05:46:25;;;;;;;;;12.33;9.00;;;;;11.02;65.69;100530.84;5120142;27;45392;-74
2023/04/24 05:48:50;;;;;;;;;11.00;9.00;;;;;10.97;65.83;100530.44;5108660;27;45665;-74
2023/04/24 05:51:15;;;;;;;;;9.67;8.00;;;;;11.14;65.51;100548.25;5099179;27;45428;-75
2023/04/24 05:53:41;;;;;;;;;7.00;7.00;;;;;11.48;65.12;100606.09;5098619;27;45327;-74
2023/04/24 05:56:06;;;;;;;;;10.00;7.67;;;;;11.50;65.25;100606.78;5093637;27;45611;-74
2023/04/24 05:58:31;;;;;;;;;9.33;8.00;;;;;11.42;65.50;100590.75;5108037;27;45815;-75
2023/04/24 06:00:58;;;;;;;;;13.00;10.33;;;;;11.60;65.07;100612.84;5108519;27;45377;-76
2023/04/24 06:03:24;;;;;;;;;12.00;9.33;;;;;10.50;65.08;100429.63;5099224;27;45334;-74
2023/04/24 06:05:51;;;;;;;;;9.00;9.00;;;;;11.21;64.52;100540.47;5099843;27;45485;-76
2023/04/24 06:08:16;;;;;;;;;8.33;8.33;;;;;11.17;65.00;100537.28;5099411;27;46422;-73
2023/04/24 06:10:41;;;;;;;;;8.67;8.67;;;;;11.34;64.45;100562.22;5099253;27;45489;-75
2023/04/24 06:13:07;;;;;;;;;12.67;8.67;;;;;11.76;64.49;100652.09;5097325;27;45299;-72
2023/04/24 06:15:32;;;;;;;;;10.00;10.00;;;;;11.75;64.77;100637.13;5099497;27;45526;-76
2023/04/24 06:17:58;;;;;;;;;10.67;10.33;;;;;11.70;64.82;100621.59;5106748;27;46508;-75
2023/04/24 06:20:24;;;;;;;;;11.00;7.67;;;;;10.42;64.47;100413.63;5113017;27;45572;-76
2023/04/24 06:22:49;;;;;;;;;12.67;9.67;;;;;11.49;64.64;100589.16;5119352;27;45378;-77
2023/04/24 06:25:15;;;;;;;;;9.33;9.33;;;;;11.62;64.57;100602.06;5119361;27;45470;-75
2023/04/24 06:27:40;;;;;;;;;12.67;10.00;;;;;11.73;64.69;100631.94;5112259;27;46441;-75
2023/04/24 06:30:06;;;;;;;;;9.00;7.67;;;;;11.74;64.77;100632.78;5098508;27;45520;-74
2023/04/24 06:32:32;;;;;;;;;12.67;12.67;;;;;11.09;64.44;100526.59;5099090;27;45607;-76
2023/04/24 06:34:57;;;;;;;;;17.33;13.67;;;;;11.80;64.77;100646.34;5099082;27;45419;-76
2023/04/24 06:37:23;;;;;;;;;14.00;11.00;;;;;11.31;64.29;100554.56;5092785;27;48348;-76
2023/04/24 06:39:48;;;;;;;;;12.33;10.67;;;;;11.57;64.04;100599.84;5092381;27;45400;-74
2023/04/24 06:42:13;;;;;;;;;8.33;8.33;;;;;11.67;64.69;100600.63;5082291;27;45553;-77
2023/04/24 06:44:40;;;;;;;;;14.00;11.33;;;;;12.06;64.07;100659.72;5104471;27;45501;-75
2023/04/24 06:47:08;;;;;;;;;12.67;12.67;;;;;12.24;64.01;100662.34;5116960;27;45820;-74
2023/04/24 06:49:37;;;;;;;;;12.67;9.33;;;;;12.12;63.58;100626.25;5119079;27;45393;-74
2023/04/24 06:52:03;;;;;;;;;16.00;12.00;;;;;12.54;62.75;100652.16;5088462;27;45363;-77
2023/04/24 06:54:29;;;;;;;;;13.33;12.33;;;;;12.94;62.49;100676.34;5077721;27;45339;-80
2023/04/24 06:56:57;;;;;;;;;19.67;15.67;;;;;13.22;61.28;100673.50;5078212;27;46487;-75
2023/04/24 06:59:22;;;;;;;;;14.33;13.33;;;;;13.75;59.88;100645.50;5077655;27;45493;-75
2023/04/24 07:01:48;;;;;;;;;13.00;11.33;;;;;14.38;58.24;100634.06;5081799;27;45302;-75
2023/04/24 07:04:13;;;;;;;;;12.67;11.67;;;;;15.37;55.91;100653.06;5098153;27;45281;-75
2023/04/24 07:06:40;;;;;;;;;18.00;17.00;;;;;15.49;53.30;100540.97;5088834;27;48638;-76
2023/04/24 07:09:05;;;;;;;;;11.00;11.00;;;;;16.50;50.25;100628.97;5096454;27;45454;-75
2023/04/24 07:11:31;;;;;;;;;17.00;15.67;;;;;16.64;50.44;100628.13;5098014;27;45959;-75
2023/04/24 07:13:56;;;;;;;;;15.00;12.67;;;;;16.67;50.34;100609.00;5083457;27;45522;-75
2023/04/24 07:16:22;;;;;;;;;14.00;11.00;;;;;17.42;49.63;100637.34;5077186;27;46243;-74
2023/04/24 07:18:47;;;;;;;;;12.33;12.33;;;;;18.13;47.44;100615.84;5077460;27;45416;-76
2023/04/24 07:21:13;;;;;;;;;15.67;15.33;;;;;18.40;46.15;100643.75;5084559;27;45538;-74
2023/04/24 07:23:38;;;;;;;;;17.67;15.67;;;;;17.90;46.46;100587.34;5094264;27;45506;-76
2023/04/24 07:26:04;;;;;;;;;10.67;10.67;;;;;18.23;46.44;100665.63;5077242;27;46207;-74
2023/04/24 07:28:32;;;;;;;;;18.00;15.00;;;;;17.20;46.64;100542.44;5086114;27;45418;-75
2023/04/24 07:30:59;;;;;;;;;13.00;10.67;;;;;15.45;47.77;100302.06;5082430;27;45335;-76
2023/04/24 07:33:25;;;;;;;;;10.67;9.67;;;;;17.19;47.83;100624.06;5077714;27;45461;-74
2023/04/24 07:35:51;;;;;;;;;13.00;12.67;;;;;17.22;48.19;100676.59;5087596;27;47586;-76
2023/04/24 07:38:16;;;;;;;;;16.67;15.00;;;;;16.80;48.99;100677.28;5078091;27;45424;-78
2023/04/24 07:40:42;;;;;;;;;19.00;13.67;;;;;16.64;49.50;100687.19;5088048;27;45388;-76
2023/04/24 07:43:07;;;;;;;;;14.00;14.00;;;;;16.45;50.30;100682.38;5098077;27;45476;-76
2023/04/24 07:45:35;;;;;;;;;17.67;12.33;;;;;16.32;50.53;100677.63;5080396;27;46501;-79
2023/04/24 07:48:01;;;;;;;;;13.67;13.67;;;;;16.27;50.47;100693.44;5083843;27;45243;-77
2023/04/24 07:50:26;;;;;;;;;14.33;13.67;;;;;16.06;50.87;100704.84;5096955;27;46843;-74
2023/04/24 07:52:51;;;;;;;;;16.67;14.33;;;;;15.64;51.60;100664.31;5090825;27;45594;-75
2023/04/24 07:55:17;;;;;;;;;21.67;19.00;;;;;15.41;51.97;100659.72;5098249;27;63895;-74
2023/04/24 07:57:42;;;;;;;;;13.33;13.33;;;;;15.42;52.41;100704.28;5100766;27;45221;-76
2023/04/24 08:00:09;;;;;;;;;9.67;8.67;;;;;15.17;52.97;100692.84;5103566;27;45573;-76
2023/04/24 08:02:34;;;;;;;;;16.67;16.33;;;;;15.11;53.41;100701.59;5096040;27;45458;-76
2023/04/24 08:04:59;;;;;;;;;17.00;15.67;;;;;14.58;53.79;100643.41;5099604;27;46011;-74
2023/04/24 08:07:25;;;;;;;;;13.00;13.00;;;;;14.56;54.07;100658.78;5101832;27;45418;-76
2023/04/24 08:09:50;;;;;;;;;21.33;18.33;;;;;14.77;54.52;100725.97;5103661;27;45738;-73
2023/04/24 08:12:15;;;;;;;;;16.67;15.00;;;;;14.35;54.70;100661.16;5098279;27;45357;-77
2023/04/24 08:14:41;;;;;;;;;18.00;18.00;;;;;14.52;55.27;100721.69;5107893;27;46620;-76
2023/04/24 08:17:06;;;;;;;;;12.67;11.33;;;;;14.45;55.22;100726.06;5094646;27;46333;-76
2023/04/24 08:19:31;;;;;;;;;13.33;11.67;;;;;12.53;55.34;100416.66;5079365;27;45399;-76
2023/04/24 08:21:57;;;;;;;;;18.00;17.67;;;;;14.40;55.37;100713.13;5105435;27;45325;-76
2023/04/24 08:24:23;;;;;;;;;73.33;57.00;;;;;14.49;55.37;100716.69;5078170;27;47200;-79
2023/04/24 08:26:52;;;;;;;;;15.67;15.67;;;;;13.39;55.36;100530.97;5096854;27;45426;-75
2023/04/24 08:29:17;;;;;;;;;18.33;15.33;;;;;14.19;55.31;100651.31;5110768;27;45273;-75
2023/04/24 08:31:43;;;;;;;;;19.00;17.33;;;;;14.09;54.87;100603.41;5098176;27;45302;-79
2023/04/24 08:34:09;;;;;;;;;16.33;14.67;;;;;15.17;54.41;100724.16;5121989;27;45741;-74
2023/04/24 08:36:35;;;;;;;;;20.67;18.33;;;;;14.96;53.23;100614.97;5104472;27;45342;-76
2023/04/24 08:39:01;;;;;;;;;18.00;17.67;;;;;15.19;52.03;100526.63;5090949;27;45434;-75
2023/04/24 08:41:27;;;;;;;;;23.00;21.33;;;;;17.41;48.80;100697.47;5108770;27;45593;-76
2023/04/24 08:43:53;;;;;;;;;23.00;20.33;;;;;18.47;46.89;100712.78;5101756;27;46555;-78
2023/04/24 08:46:19;;;;;;;;;18.67;15.67;;;;;19.37;44.26;100711.00;5083949;27;45478;-76
2023/04/24 08:48:45;;;;;;;;;19.33;17.00;;;;;19.45;43.68;100681.19;5084830;27;45269;-78
2023/04/24 08:51:11;;;;;;;;;17.67;13.33;;;;;19.07;42.96;100630.47;5096263;27;45248;-76
2023/04/24 08:53:37;;;;;;;;;14.00;13.33;;;;;19.39;42.95;100725.09;5095160;27;47793;-80
2023/04/24 08:56:03;;;;;;;;;17.33;14.00;;;;;19.10;43.61;100710.91;5112006;27;46086;-75
2023/04/24 08:58:30;;;;;;;;;19.67;19.67;;;;;18.27;43.59;100612.22;5121050;27;45521;-75
2023/04/24 09:00:57;;;;;;;;;17.33;15.33;;;;;18.66;43.59;100695.13;5083569;27;45545;-78
2023/04/24 09:03:22;;;;;;;;;17.00;15.67;;;;;18.90;44.23;100719.91;5100297;27;45681;-77
2023/04/24 09:05:50;;;;;;;;;16.00;15.67;;;;;18.94;43.75;100726.56;5099931;27;45635;-76
2023/04/24 09:08:18;;;;;;;;;19.33;19.33;;;;;19.11;43.50;100733.28;5106347;27;45254;-78
2023/04/24 09:10:43;;;;;;;;;29.00;26.67;;;;;18.45;43.64;100636.78;5092601;27;45459;-77
2023/04/24 09:13:10;;;;;;;;;19.33;17.67;;;;;18.58;43.58;100667.47;5101459;27;46443;-75
2023/04/24 09:15:36;;;;;;;;;20.67;18.00;;;;;18.28;43.72;100630.03;5120451;27;45550;-77
2023/04/24 09:18:02;;;;;;;;;18.33;15.33;;;;;18.78;44.14;100727.72;5090663;27;45529;-77
2023/04/24 09:20:27;;;;;;;;;15.33;11.33;;;;;18.66;43.74;100719.38;5100972;27;45576;-76
2023/04/24 09:22:59;;;;;;;;;15.67;15.67;;;;;18.63;44.08;100735.09;5100208;27;46154;-77
2023/04/24 09:25:35;;;;;;;;;15.00;13.33;;;;;18.17;44.55;100713.97;5081720;27;45562;-76
2023/04/24 09:28:06;;;;;;;;;14.33;13.67;;;;;17.88;44.89;100745.41;5100195;27;45564;-77
2023/04/24 09:30:32;;;;;;;;;17.00;16.67;;;;;17.55;46.04;100719.97;5100325;27;45635;-76
2023/04/24 09:33:14;;;;;;;;;16.67;15.00;;;;;17.66;45.95;100749.06;5101768;27;45373;-74
2023/04/24 09:35:48;;;;;;;;;19.00;16.67;;;;;17.37;45.81;100727.63;5100406;27;45438;-75
2023/04/24 09:38:13;;;;;;;;;9.33;9.33;;;;;17.25;46.47;100741.56;5096353;27;45352;-75
2023/04/24 09:40:39;;;;;;;;;18.67;17.67;;;;;17.32;46.49;100739.75;5081791;27;45626;-76
2023/04/24 09:43:10;;;;;;;;;13.67;12.67;;;;;17.21;46.26;100740.22;5108090;27;45812;-76
2023/04/24 09:45:37;;;;;;;;;14.67;14.33;;;;;17.29;46.15;100753.59;5099235;27;45448;-76
2023/04/24 09:48:03;;;;;;;;;16.00;14.67;;;;;16.45;46.53;100626.00;5113715;27;45369;-77
2023/04/24 09:50:37;;;;;;;;;14.33;12.33;;;;;17.07;46.42;100743.78;5111282;27;45252;-75
2023/04/24 09:53:04;;;;;;;;;17.33;16.33;;;;;16.84;47.08;100705.47;5115565;27;45489;-76
2023/04/24 09:55:30;;;;;;;;;19.67;15.00;;;;;16.93;47.33;100710.53;5117162;27;45496;-75
2023/04/24 09:58:00;;;;;;;;;13.67;13.00;;;;;17.14;47.57;100739.31;5091743;27;45383;-77
2023/04/24 10:00:31;;;;;;;;;17.33;14.67;;;;;17.37;46.90;100749.13;5105083;27;45477;-75
2023/04/24 10:02:59;;;;;;;;;17.33;16.67;;;;;17.29;46.79;100748.22;5092619;27;47692;-75
2023/04/24 10:05:35;;;;;;;;;17.33;16.67;;;;;17.18;46.37;100751.34;5102696;27;45494;-75
2023/04/24 10:08:06;;;;;;;;;17.33;16.33;;;;;17.17;46.70;100756.91;5109033;27;45373;-77
2023/04/24 10:10:43;;;;;;;;;15.00;13.00;;;;;17.31;46.60;100746.16;5099084;27;45279;-75
2023/04/24 10:13:10;;;;;;;;;17.33;15.00;;;;;17.34;45.61;100731.50;5099425;27;45892;-77
2023/04/24 10:15:36;;;;;;;;;12.33;11.00;;;;;17.57;45.90;100759.06;5100206;27;45458;-77
2023/04/24 10:18:04;;;;;;;;;16.67;15.67;;;;;17.69;44.92;100754.09;5119578;27;45575;-76
2023/04/24 10:20:33;;;;;;;;;13.33;12.33;;;;;17.17;45.39;100671.78;5111805;27;45403;-77
2023/04/24 10:22:59;;;;;;;;;14.00;12.67;;;;;16.22;44.98;100496.47;5103391;27;45969;-76
2023/04/24 10:25:28;;;;;;;;;18.00;14.00;;;;;17.26;44.02;100646.47;5085173;27;45479;-76
2023/04/24 10:27:57;;;;;;;;;19.00;18.33;;;;;18.01;43.73;100749.22;5110322;27;45375;-76
2023/04/24 10:30:23;;;;;;;;;25.33;23.00;;;;;18.01;43.53;100730.38;5104435;27;45503;-76
2023/04/24 10:32:48;;;;;;;;;14.00;13.00;;;;;18.19;42.70;100758.50;5099522;27;46559;-77
2023/04/24 10:35:17;;;;;;;;;17.00;15.67;;;;;18.09;42.94;100733.78;5094497;27;45569;-77
2023/04/24 10:37:48;;;;;;;;;14.33;14.33;;;;;18.25;42.39;100754.22;5084117;27;45521;-76
2023/04/24 10:40:19;;;;;;;;;13.00;13.00;;;;;18.28;43.25;100763.78;5114258;27;45361;-76
2023/04/24 10:42:48;;;;;;;;;17.00;14.67;;;;;18.21;42.77;100747.53;5097366;27;46646;-76
2023/04/24 10:45:21;;;;;;;;;13.67;13.67;;;;;18.14;42.77;100741.28;5080818;27;45304;-77
2023/04/24 10:48:10;;;;;;;;;13.67;13.67;;;;;18.25;42.19;100743.47;5081715;27;45360;-78
2023/04/24 10:50:53;;;;;;;;;12.67;11.33;;;;;18.26;42.19;100745.13;5099366;27;45485;-77
2023/04/24 10:53:23;;;;;;;;;13.00;13.00;;;;;18.22;42.67;100760.00;5100463;27;48543;-77
2023/04/24 10:55:51;;;;;;;;;13.00;13.00;;;;;18.13;43.06;100761.97;5099659;27;45518;-79
2023/04/24 10:58:21;;;;;;;;;14.67;11.00;;;;;17.21;42.80;100638.13;5094943;27;45493;-77
2023/04/24 11:00:57;;;;;;;;;13.33;12.33;;;;;17.05;43.89;100648.31;5100146;27;45514;-78
2023/04/24 11:03:30;;;;;;;;;13.00;9.67;;;;;16.84;43.60;100616.84;5105465;27;45659;-77
2023/04/24 11:06:00;;;;;;;;;10.00;10.00;;;;;17.69;43.61;100746.00;5099919;27;45527;-77
2023/04/24 11:08:31;;;;;;;;;10.33;7.33;;;;;17.77;43.25;100740.50;5106553;27;45245;-75
2023/04/24 11:11:02;;;;;;;;;25.67;25.67;;;;;17.29;43.24;100646.09;5108376;27;45500;-75
2023/04/24 11:13:53;;;;;;;;;13.00;11.33;;;;;17.89;43.10;100733.59;5103895;27;46664;-77
2023/04/24 11:16:33;;;;;;;;;11.00;10.33;;;;;18.01;43.02;100746.53;5098502;27;45588;-77